Larry Drummond — WDG3073 — position and weather

sailwx.info

Track history (hours):
 
Tides and Currents Weather Stations Pressure Air Temp Water Temp Dewpoint Dewpoint Depression Visibility Wind Speed Wind Dir Waves Ship Positions

Larry Drummond

Owner: INGRAM BARGE COMPANY, NASHVILLE, TN. More information available from US FCC via Universal Licensing System and Coast Guard Vessel Documentation Center.

Last reported at 2015-Sep-03 01:29 UTC. Time now 2015-Sep-03 15:12 UTC.
Position N 38°56' W 084°52'.

Length 70 m; draft 9 m.

Type: Towing. MMSI: 367522210.

Date/timePositionNaut miles runAvg speedWind from/ knotsBaromVisibWave heightAir tempDewpointWater temp
2015-Sep-03 01:29N 38°56' W 084°52'22 2.7
2015-Sep-02 17:15N 39°03' W 084°25'4 6.3
2015-Sep-02 16:33N 39°02' W 084°20'6 6.2
2015-Sep-02 15:33N 38°56' W 084°16'6 6.4
2015-Sep-02 14:33N 38°50' W 084°14'4 3.8
2015-Sep-02 13:32N 38°48' W 084°10'1 0.2
2015-Sep-02 09:08N 38°48' W 084°09'1 1.0
2015-Sep-02 08:26N 38°47' W 084°08'10 5.4
2015-Sep-02 06:33N 38°46' W 083°55'7 6.6
2015-Sep-02 05:26N 38°42' W 083°47'6 6.2
2015-Sep-02 04:31N 38°38' W 083°42'1 0.0
2015-Sep-01 07:29N 38°38' W 083°41'1 0.5
2015-Sep-01 06:18N 38°38' W 083°42'0 0.0
2015-Sep-01 05:07N 38°38' W 083°42'0 0.9
2015-Sep-01 04:32N 38°38' W 083°42'5 3.7
2015-Sep-01 03:14N 38°41' W 083°47'4 3.5
2015-Sep-01 02:05N 38°44' W 083°51'2 3.9
2015-Sep-01 01:33N 38°46' W 083°53'8 4.0
2015-Aug-31 23:30N 38°46' W 084°03'4 4.3
2015-Aug-31 22:33N 38°47' W 084°08'3 2.0
2015-Aug-31 21:12N 38°48' W 084°12'2 3.6
2015-Aug-31 20:31N 38°50' W 084°14'4 4.1
2015-Aug-31 19:33N 38°53' W 084°14'4 4.1
2015-Aug-31 18:33N 38°57' W 084°17'4 4.1
2015-Aug-31 17:34N 39°01' W 084°19'3 2.9
2015-Aug-31 16:32N 39°02' W 084°22'0 0.3
2015-Aug-31 15:32N 39°02' W 084°22'3 3.5
2015-Aug-31 14:33N 39°04' W 084°26'3 3.4
2015-Aug-31 13:33N 39°07' W 084°28'4 4.0
2015-Aug-31 12:33N 39°06' W 084°33'3 3.0
2015-Aug-31 11:32N 39°04' W 084°36'4 3.7
2015-Aug-31 10:33N 39°06' W 084°41'4 4.0
2015-Aug-31 09:33N 39°09' W 084°44'4 3.8
2015-Aug-31 08:32N 39°06' W 084°49'10 3.0
2015-Aug-31 05:20N 38°57' W 084°51'7 2.3
2015-Aug-31 02:32N 38°50' W 084°49'  
2015-Aug-25 04:26N 39°04' W 084°53'5 5.2
2015-Aug-25 03:32N 39°07' W 084°48'0 0.5
2015-Aug-25 02:33N 39°07' W 084°47'5 5.4
2015-Aug-25 01:33N 39°06' W 084°40'6 6.3
2015-Aug-25 00:33N 39°06' W 084°32'5 4.7
2015-Aug-24 23:32N 39°06' W 084°26'7 6.7
2015-Aug-24 22:33N 39°02' W 084°20'8 8.2
2015-Aug-24 21:33N 38°54' W 084°15'2 1.6
2015-Aug-24 20:28N 38°53' W 084°14'0 0.2
2015-Aug-24 19:32N 38°52' W 084°14'4 3.8
2015-Aug-24 18:33N 38°56' W 084°16'6 6.4
2015-Aug-24 17:33N 39°02' W 084°20'6 6.0
2015-Aug-24 16:33N 39°05' W 084°26'4 4.5
2015-Aug-24 15:33N 39°06' W 084°32'1 1.2
2015-Aug-24 14:32N 39°06' W 084°33'0 0.0
2015-Aug-24 13:32N 39°06' W 084°33'0 0.0
2015-Aug-24 12:32N 39°06' W 084°33'0 0.1
2015-Aug-24 11:32N 39°06' W 084°33'2 2.3
2015-Aug-24 10:33N 39°04' W 084°36'4 3.8
2015-Aug-24 09:33N 39°06' W 084°40'4 3.7
2015-Aug-24 08:33N 39°08' W 084°44'  
Track history (hours):
 
Tides and Currents Weather Stations Pressure Air Temp Water Temp Dewpoint Dewpoint Depression Visibility Wind Speed Wind Dir Waves Ship Positions

Larry Drummond

Owner: INGRAM BARGE COMPANY, NASHVILLE, TN. More information available from US FCC via Universal Licensing System and Coast Guard Vessel Documentation Center.

Last reported at 2015-Sep-03 01:29 UTC. Time now 2015-Sep-03 15:12 UTC.
Position N 38°56' W 084°52'.

Length 70 m; draft 9 m.

Type: Towing. MMSI: 367522210.

Date/timePositionNaut miles runAvg speedWind from/ knotsBaromVisibWave heightAir tempDewpointWater temp
2015-Sep-03 01:29N 38°56' W 084°52'22 2.7
2015-Sep-02 17:15N 39°03' W 084°25'4 6.3
2015-Sep-02 16:33N 39°02' W 084°20'6 6.2
2015-Sep-02 15:33N 38°56' W 084°16'6 6.4
2015-Sep-02 14:33N 38°50' W 084°14'4 3.8
2015-Sep-02 13:32N 38°48' W 084°10'1 0.2
2015-Sep-02 09:08N 38°48' W 084°09'1 1.0
2015-Sep-02 08:26N 38°47' W 084°08'10 5.4
2015-Sep-02 06:33N 38°46' W 083°55'7 6.6
2015-Sep-02 05:26N 38°42' W 083°47'6 6.2
2015-Sep-02 04:31N 38°38' W 083°42'1 0.0
2015-Sep-01 07:29N 38°38' W 083°41'1 0.5
2015-Sep-01 06:18N 38°38' W 083°42'0 0.0
2015-Sep-01 05:07N 38°38' W 083°42'0 0.9
2015-Sep-01 04:32N 38°38' W 083°42'5 3.7
2015-Sep-01 03:14N 38°41' W 083°47'4 3.5
2015-Sep-01 02:05N 38°44' W 083°51'2 3.9
2015-Sep-01 01:33N 38°46' W 083°53'8 4.0
2015-Aug-31 23:30N 38°46' W 084°03'4 4.3
2015-Aug-31 22:33N 38°47' W 084°08'3 2.0
2015-Aug-31 21:12N 38°48' W 084°12'2 3.6
2015-Aug-31 20:31N 38°50' W 084°14'4 4.1
2015-Aug-31 19:33N 38°53' W 084°14'4 4.1
2015-Aug-31 18:33N 38°57' W 084°17'4 4.1
2015-Aug-31 17:34N 39°01' W 084°19'3 2.9
2015-Aug-31 16:32N 39°02' W 084°22'0 0.3
2015-Aug-31 15:32N 39°02' W 084°22'3 3.5
2015-Aug-31 14:33N 39°04' W 084°26'3 3.4
2015-Aug-31 13:33N 39°07' W 084°28'4 4.0
2015-Aug-31 12:33N 39°06' W 084°33'3 3.0
2015-Aug-31 11:32N 39°04' W 084°36'4 3.7
2015-Aug-31 10:33N 39°06' W 084°41'4 4.0
2015-Aug-31 09:33N 39°09' W 084°44'4 3.8
2015-Aug-31 08:32N 39°06' W 084°49'10 3.0
2015-Aug-31 05:20N 38°57' W 084°51'7 2.3
2015-Aug-31 02:32N 38°50' W 084°49'  
2015-Aug-25 04:26N 39°04' W 084°53'5 5.2
2015-Aug-25 03:32N 39°07' W 084°48'0 0.5
2015-Aug-25 02:33N 39°07' W 084°47'5 5.4
2015-Aug-25 01:33N 39°06' W 084°40'6 6.3
2015-Aug-25 00:33N 39°06' W 084°32'5 4.7
2015-Aug-24 23:32N 39°06' W 084°26'7 6.7
2015-Aug-24 22:33N 39°02' W 084°20'8 8.2
2015-Aug-24 21:33N 38°54' W 084°15'2 1.6
2015-Aug-24 20:28N 38°53' W 084°14'0 0.2
2015-Aug-24 19:32N 38°52' W 084°14'4 3.8
2015-Aug-24 18:33N 38°56' W 084°16'6 6.4
2015-Aug-24 17:33N 39°02' W 084°20'6 6.0
2015-Aug-24 16:33N 39°05' W 084°26'4 4.5
2015-Aug-24 15:33N 39°06' W 084°32'1 1.2
2015-Aug-24 14:32N 39°06' W 084°33'0 0.0
2015-Aug-24 13:32N 39°06' W 084°33'0 0.0
2015-Aug-24 12:32N 39°06' W 084°33'0 0.1
2015-Aug-24 11:32N 39°06' W 084°33'2 2.3
2015-Aug-24 10:33N 39°04' W 084°36'4 3.8
2015-Aug-24 09:33N 39°06' W 084°40'4 3.7
2015-Aug-24 08:33N 39°08' W 084°44'  

Dump ship's entire track history